Time;durP1;ratioP1;P1;durP2;ratioP2;P2;SDS_P1;SDS_P2;PMS_P1;PMS_P2;Temp;Humidity;BMP_temperature;BMP_pressure;BME280_temperature;BME280_humidity;BME280_pressure;Samples;Min_cycle;Max_cycle;Signal;HPM_P1;HPM_P2
2022/11/22 00:08:43;;;;;;;53.20;27.20;;;;;;;0.65;86.12;97512.32;420579;1299;99224;-39
2022/11/22 00:18:50;;;;;;;63.40;30.60;;;;;;;0.60;86.09;97509.11;420821;1299;112115;-42
2022/11/22 00:28:57;;;;;;;84.30;39.80;;;;;;;0.57;86.37;97509.06;420655;1299;110724;-40
2022/11/22 00:39:03;;;;;;;67.80;37.40;;;;;;;0.40;85.92;97518.23;420638;1295;98851;-41
2022/11/22 00:49:11;;;;;;;64.50;30.60;;;;;;;0.45;86.13;97521.43;420568;1292;108285;-40
2022/11/22 00:59:18;;;;;;;55.40;28.30;;;;;;;0.52;86.22;97530.52;420645;1298;99360;-41
2022/11/22 01:09:26;;;;;;;65.60;29.90;;;;;;;0.65;86.48;97534.69;420514;1299;111972;-41
2022/11/22 01:19:33;;;;;;;60.70;29.60;;;;;;;0.62;86.31;97545.61;420625;1289;107301;-40
2022/11/22 01:29:40;;;;;;;69.50;32.50;;;;;;;0.54;86.39;97544.05;420576;1284;98464;-40
2022/11/22 01:39:47;;;;;;;64.70;31.60;;;;;;;0.45;86.60;97534.80;420579;1298;107244;-41
2022/11/22 01:50:00;;;;;;;78.60;34.10;;;;;;;0.38;86.81;97523.67;420622;1292;98096;-39
2022/11/22 02:00:08;;;;;;;54.00;26.90;;;;;;;0.34;87.03;97520.54;420631;1292;113039;-40
2022/11/22 02:10:14;;;;;;;45.80;24.80;;;;;;;0.32;87.17;97516.81;421610;1272;107746;-41
2022/11/22 02:20:22;;;;;;;49.70;27.90;;;;;;;0.37;87.47;97505.40;420778;1298;98825;-39
2022/11/22 02:30:29;;;;;;;44.90;20.40;;;;;;;0.50;87.80;97493.39;420853;1291;108242;-39
2022/11/22 02:40:38;;;;;;;50.90;24.50;;;;;;;0.65;87.78;97486.15;420859;1284;99214;-40
2022/11/22 03:00:52;;;;;;;58.10;24.20;;;;;;;0.94;88.08;97484.81;420778;1298;106527;-38
2022/11/22 03:10:58;;;;;;;69.40;29.00;;;;;;;1.01;88.21;97478.14;420757;1292;99230;-39
2022/11/22 03:21:08;;;;;;;76.70;34.80;;;;;;;1.14;88.36;97466.91;420948;1291;107522;-40
2022/11/22 03:31:13;;;;;;;;;;;;;;;1.24;88.53;97448.23;420658;1293;98032;-40
2022/11/22 03:41:20;;;;;;;86.70;33.70;;;;;;;1.35;88.71;97446.38;420796;1297;112098;-40
2022/11/22 03:51:28;;;;;;;81.80;35.40;;;;;;;1.42;88.72;97450.50;420714;1283;107331;-41
2022/11/22 04:01:35;;;;;;;84.90;36.60;;;;;;;1.51;88.85;97460.21;420664;1292;99221;-40
2022/11/22 04:11:43;;;;;;;79.60;34.90;;;;;;;1.55;88.81;97463.98;420644;1291;107701;-40
2022/11/22 04:21:50;;;;;;;84.10;35.20;;;;;;;1.55;88.80;97456.24;420701;1298;98045;-40
2022/11/22 04:52:58;;;;;;;72.30;32.50;;;;;;;1.49;89.02;97448.15;420628;1298;98304;-40
2022/11/22 05:03:05;;;;;;;61.10;30.00;;;;;;;1.42;89.16;97440.60;420565;1292;107245;-40
2022/11/22 05:13:13;;;;;;;76.30;36.00;;;;;;;1.34;89.16;97435.60;420769;1291;98054;-40
2022/11/22 05:33:46;;;;;;;72.30;32.70;;;;;;;1.14;89.43;97456.69;420865;1291;107385;-39
2022/11/22 05:43:54;;;;;;;66.40;33.20;;;;;;;1.19;89.70;97459.19;421718;1284;98050;-41
2022/11/22 05:54:01;;;;;;;86.10;37.40;;;;;;;1.17;89.67;97445.56;423011;1298;107428;-40
2022/11/22 06:04:08;;;;;;;82.10;34.50;;;;;;;1.11;89.88;97444.59;422119;1285;99004;-39
2022/11/22 06:14:15;;;;;;;55.30;29.60;;;;;;;1.13;90.06;97453.48;422253;1291;110820;-41
2022/11/22 06:24:22;;;;;;;67.30;29.40;;;;;;;1.12;90.31;97451.36;422985;1295;108509;-40
2022/11/22 06:34:29;;;;;;;58.60;25.80;;;;;;;1.09;90.31;97466.27;420671;1292;98828;-41
2022/11/22 06:44:37;;;;;;;63.40;29.70;;;;;;;1.01;90.60;97473.30;420653;1291;109518;-42
2022/11/22 06:54:44;;;;;;;79.40;36.10;;;;;;;1.01;90.84;97475.90;420881;1291;98628;-40
2022/11/22 07:04:51;;;;;;;53.70;26.80;;;;;;;1.07;90.62;97480.95;420761;1291;112482;-40
2022/11/22 07:15:19;;;;;;;61.00;28.20;;;;;;;1.06;90.45;97502.02;420803;1291;107873;-40
2022/11/22 07:25:26;;;;;;;49.20;24.80;;;;;;;1.10;90.55;97508.11;420787;1292;99217;-40
2022/11/22 07:35:33;;;;;;;45.80;23.50;;;;;;;1.11;90.89;97515.36;420707;1291;108721;-39
2022/11/22 07:45:40;;;;;;;47.70;26.00;;;;;;;1.21;90.62;97503.30;420672;1291;98844;-40
2022/11/22 07:55:48;;;;;;;61.50;30.20;;;;;;;1.28;90.89;97501.06;420836;1292;111601;-39
2022/11/22 08:16:03;;;;;;;48.60;28.70;;;;;;;1.62;90.82;97512.40;420744;1284;98072;-40
2022/11/22 08:26:14;;;;;;;40.40;27.10;;;;;;;1.87;90.77;97518.73;420800;1292;112498;-41
2022/11/22 08:36:21;;;;;;;38.20;22.50;;;;;;;2.27;90.94;97510.09;422871;1298;107691;-39
2022/11/22 08:46:29;;;;;;;63.90;35.30;;;;;;;2.59;90.76;97504.71;420659;1299;99110;-40
2022/11/22 08:56:36;;;;;;;54.80;28.50;;;;;;;2.99;91.00;97508.32;420708;1298;108601;-41
2022/11/22 09:06:43;;;;;;;41.90;22.40;;;;;;;3.29;90.61;97493.81;420670;1298;98827;-39
2022/11/22 09:17:11;;;;;;;44.50;23.90;;;;;;;3.44;90.40;97481.45;420557;1294;112700;-39
2022/11/22 09:27:24;;;;;;;44.80;24.40;;;;;;;3.51;90.41;97479.44;420716;1291;108488;-41
2022/11/22 09:37:31;;;;;;;29.50;18.00;;;;;;;3.77;90.02;97480.20;420670;1298;99127;-39
2022/11/22 09:47:36;;;;;;;34.60;19.70;;;;;;;4.09;89.75;97475.42;420539;1295;109042;-39
2022/11/22 09:57:48;;;;;;;41.40;24.70;;;;;;;4.11;89.26;97470.79;420662;1294;98626;-40
2022/11/22 10:07:57;;;;;;;34.00;18.00;;;;;;;4.08;88.56;97466.67;420477;1298;111507;-38
2022/11/22 10:18:11;;;;;;;36.60;21.10;;;;;;;4.24;88.49;97457.65;420574;1298;108479;-41
2022/11/22 10:28:19;;;;;;;39.60;23.80;;;;;;;4.31;88.45;97461.89;420676;1298;99332;-40
2022/11/22 10:38:40;;;;;;;34.40;20.30;;;;;;;4.54;88.04;97450.76;420755;1298;112343;-40
2022/11/22 10:48:49;;;;;;;40.40;20.10;;;;;;;4.70;87.23;97453.98;420514;1299;107733;-41
2022/11/22 10:59:11;;;;;;;39.20;24.50;;;;;;;4.88;87.16;97452.70;420686;1292;98007;-40
2022/11/22 11:09:21;;;;;;;43.90;25.30;;;;;;;4.79;86.11;97437.30;420677;1298;110467;-41
2022/11/22 11:19:50;;;;;;;47.80;26.60;;;;;;;4.88;85.51;97426.91;420448;1293;328291;-40
2022/11/22 11:30:00;;;;;;;51.40;30.10;;;;;;;4.87;84.75;97424.10;420967;1298;98828;-40
2022/11/22 11:40:25;;;;;;;34.60;21.10;;;;;;;5.03;84.52;97412.25;420907;1299;109055;-41
2022/11/22 11:50:33;;;;;;;64.60;30.90;;;;;;;5.04;83.89;97414.05;420859;1298;98343;-40
2022/11/22 12:00:41;;;;;;;58.10;31.10;;;;;;;4.95;83.40;97412.70;420889;1291;111652;-42
2022/11/22 12:10:55;;;;;;;41.90;24.90;;;;;;;4.96;83.01;97417.73;420715;1298;107789;-40
2022/11/22 12:21:05;;;;;;;54.90;31.20;;;;;;;4.93;82.69;97414.59;420939;1293;99132;-42
2022/11/22 12:31:13;;;;;;;60.60;33.40;;;;;;;4.71;82.25;97406.52;420961;1292;108833;-40
2022/11/22 12:41:22;;;;;;;51.40;32.60;;;;;;;4.41;81.76;97403.19;420755;1298;99227;-41
2022/11/22 12:51:34;;;;;;;65.40;33.40;;;;;;;4.29;81.75;97407.68;420972;1299;112154;-40
2022/11/22 13:01:47;;;;;;;62.60;34.20;;;;;;;4.31;82.13;97416.16;420704;1295;107472;-40
2022/11/22 13:12:02;;;;;;;47.40;27.60;;;;;;;4.16;82.04;97409.80;420838;1291;99234;-40
2022/11/22 13:22:13;;;;;;;40.10;25.60;;;;;;;3.79;81.90;97405.70;420657;1299;107967;-39
2022/11/22 13:32:22;;;;;;;45.00;26.30;;;;;;;3.60;82.24;97402.73;420777;1298;99176;-40
2022/11/22 13:42:30;;;;;;;54.80;32.30;;;;;;;3.52;82.57;97405.29;421014;1297;112286;-39
2022/11/22 13:52:55;;;;;;;57.30;29.30;;;;;;;3.19;82.34;97395.21;420854;1298;107547;-40
2022/11/22 14:03:13;;;;;;;38.40;22.30;;;;;;;2.98;82.57;97393.88;420635;1298;98304;-41
2022/11/22 14:13:26;;;;;;;54.40;28.70;;;;;;;2.86;82.47;97393.76;420644;1292;111963;-41
2022/11/22 14:34:35;;;;;;;45.00;28.30;;;;;;;2.32;82.84;97402.70;420576;1299;98613;-41
2022/11/22 14:44:43;;;;;;;48.30;30.30;;;;;;;2.20;83.10;97404.80;420704;1299;107590;-41
2022/11/22 14:54:52;;;;;;;73.60;38.50;;;;;;;2.10;83.43;97401.41;420850;1292;99220;-41
2022/11/22 15:04:59;;;;;;;72.30;36.20;;;;;;;1.94;83.62;97415.58;420746;1294;109786;-41
2022/11/22 15:15:32;;;;;;;71.90;37.90;;;;;;;1.85;83.83;97427.58;421462;1291;108461;-41
2022/11/22 15:26:06;;;;;;;66.30;35.20;;;;;;;1.90;84.08;97433.15;420794;1298;99106;-40
2022/11/22 15:36:37;;;;;;;71.30;37.30;;;;;;;1.99;84.19;97437.91;420615;1296;108810;-41
2022/11/22 15:47:06;;;;;;;91.20;43.20;;;;;;;2.01;84.54;97431.24;420744;1301;99268;-39
2022/11/22 15:57:32;;;;;;;84.20;40.80;;;;;;;2.02;84.75;97431.40;420578;1299;113368;-39
2022/11/22 16:17:51;;;;;;;59.10;32.20;;;;;;;2.25;84.81;97430.86;420669;1297;98488;-41
2022/11/22 16:28:06;;;;;;;53.20;29.40;;;;;;;2.39;85.01;97429.05;420756;1292;112929;-40
2022/11/22 16:38:14;;;;;;;85.80;42.60;;;;;;;2.43;85.15;97432.48;420596;1292;109363;-40
2022/11/22 16:48:23;;;;;;;66.10;36.10;;;;;;;2.43;85.50;97434.48;420677;1298;99250;-40
2022/11/22 16:58:39;;;;;;;53.00;28.90;;;;;;;2.44;85.29;97442.92;420656;1298;112974;-40
2022/11/22 17:08:48;;;;;;;56.70;29.80;;;;;;;2.51;85.47;97452.75;420747;1292;108001;-40
2022/11/22 17:18:56;;;;;;;43.20;26.80;;;;;;;2.58;85.56;97454.13;420877;1298;99204;-39
2022/11/22 17:29:04;;;;;;;71.60;37.90;;;;;;;2.60;85.71;97468.77;420755;1298;107403;-42
2022/11/22 17:39:17;;;;;;;74.30;36.50;;;;;;;2.56;85.86;97470.80;420886;1299;99253;-39
2022/11/22 17:49:25;;;;;;;55.90;30.60;;;;;;;2.56;85.91;97467.90;420893;1299;111314;-39
2022/11/22 17:59:32;;;;;;;70.20;33.80;;;;;;;2.65;86.03;97475.63;420697;1293;108490;-40
2022/11/22 18:09:40;;;;;;;65.00;32.20;;;;;;;2.71;86.18;97481.34;420708;1298;99221;-41
2022/11/22 18:19:47;;;;;;;62.10;33.50;;;;;;;2.78;86.41;97490.82;420543;1295;108332;-40
2022/11/22 18:29:55;;;;;;;74.40;37.70;;;;;;;2.77;86.44;97496.77;420755;1299;99345;-38
2022/11/22 18:40:02;;;;;;;67.70;35.40;;;;;;;2.69;86.49;97501.73;420617;1301;111877;-42
2022/11/22 18:50:12;;;;;;;67.90;35.70;;;;;;;2.65;86.42;97495.95;420720;1292;108706;-41
2022/11/22 19:00:21;;;;;;;76.20;35.00;;;;;;;2.68;86.64;97494.09;420942;1295;98607;-40
2022/11/22 19:10:28;;;;;;;76.20;35.20;;;;;;;2.71;86.66;97490.30;420993;1298;108157;-40
2022/11/22 19:20:35;;;;;;;85.00;40.80;;;;;;;2.62;86.84;97484.11;421003;1290;98827;-41
2022/11/22 19:31:06;;;;;;;54.60;31.10;;;;;;;2.55;86.75;97490.14;420721;1298;111036;-41
2022/11/22 19:41:16;;;;;;;48.50;26.70;;;;;;;2.46;86.80;97505.16;420892;1291;106641;-40
2022/11/22 19:51:25;;;;;;;53.00;27.20;;;;;;;2.43;86.84;97511.75;420774;1298;99284;-40
2022/11/22 20:01:33;;;;;;;75.90;38.70;;;;;;;2.38;87.01;97519.50;420685;1288;108641;-40
2022/11/22 20:11:43;;;;;;;67.60;34.00;;;;;;;2.23;87.04;97525.72;420782;1299;99150;-40
2022/11/22 20:21:50;;;;;;;48.70;27.30;;;;;;;2.15;87.11;97531.41;420624;1292;111333;-39
2022/11/22 20:31:59;;;;;;;53.50;27.00;;;;;;;2.12;87.26;97535.84;420717;1290;108064;-40
2022/11/22 20:42:05;;;;;;;45.70;25.60;;;;;;;2.09;87.26;97539.41;420743;1299;97988;-40
2022/11/22 20:52:12;;;;;;;53.00;26.00;;;;;;;1.95;87.27;97540.67;420867;1296;108258;-40
2022/11/22 21:02:19;;;;;;;44.80;25.30;;;;;;;1.78;87.40;97538.10;420606;1284;98574;-40
2022/11/22 21:12:26;;;;;;;67.70;31.80;;;;;;;1.67;87.52;97552.13;420772;1298;112180;-40
2022/11/22 21:22:34;;;;;;;61.20;29.90;;;;;;;1.47;87.57;97550.02;420701;1292;107916;-39
2022/11/22 21:32:41;;;;;;;51.00;25.80;;;;;;;1.31;87.59;97539.25;420632;1291;98062;-39
2022/11/22 21:42:48;;;;;;;42.80;21.80;;;;;;;1.24;87.54;97537.04;420656;1291;108062;-40
2022/11/22 21:52:56;;;;;;;44.40;23.00;;;;;;;1.23;87.71;97547.38;420558;1292;99275;-39
2022/11/22 22:03:04;;;;;;;43.80;24.00;;;;;;;1.26;87.88;97555.67;420802;1298;111449;-40
2022/11/22 22:13:11;;;;;;;105.00;41.80;;;;;;;1.25;87.90;97567.56;420797;1284;108563;-40
2022/11/22 22:23:18;;;;;;;70.40;33.70;;;;;;;1.17;88.27;97561.69;420802;1299;98017;-39
2022/11/22 22:33:24;;;;;;;73.60;32.70;;;;;;;1.22;88.26;97562.46;421965;1283;105905;-41
2022/11/22 22:43:33;;;;;;;79.20;32.60;;;;;;;1.28;88.29;97571.38;420824;1291;99109;-39
2022/11/22 22:53:41;;;;;;;87.10;34.70;;;;;;;1.29;88.42;97572.30;421763;1298;111540;-38
2022/11/22 23:03:49;;;;;;;100.90;38.30;;;;;;;1.16;88.57;97569.82;420995;1298;109502;-39
2022/11/22 23:13:56;;;;;;;73.40;31.30;;;;;;;1.05;88.57;97559.25;420507;1290;384517;-40
2022/11/22 23:24:05;;;;;;;66.70;30.90;;;;;;;1.04;88.66;97561.48;420865;1298;108459;-39
2022/11/22 23:34:11;;;;;;;64.40;31.20;;;;;;;1.07;88.82;97568.34;421027;1292;99246;-40
2022/11/22 23:44:18;;;;;;;55.80;26.20;;;;;;;1.14;88.78;97551.86;420897;1292;111957;-39
2022/11/22 23:54:25;;;;;;;76.10;32.60;;;;;;;1.07;88.90;97547.08;420806;1283;108512;-39
